Daily Summary for December 09, 2021 Units:  Metric    English   Both
Daily Weekly Monthly Yearly
  Current: High: Low: Average:
Temperature: 23 °C 23 °C 12 °C 15.1 °C
Dew Point: 12.7 °C 14.3 °C 10.9 °C 11.9 °C
Humidity: 52.3% 94% 52.3% 83%
Wind Speed: 4.2km/h 6.1km/h 0km/h 2.5km/h
Wind Gust: 12.9km/h 16.1km/h - -
WindWNW - - South
Pressure: 1006.1 hPa 1011.6 hPa 1006.1 hPa -
Precipitation: 6.9 mm      
 
 
Tabular Data for December 09, 2021
Time Temperature Dew Point Pressure Wind Wind Speed Wind Gust Humidity Rainfall Rate (Hourly) solar
00:04 13.5 °C 11.2 °C 1011.6 hPa SE 1.6 km/h 8 km/h 86% 0.0 mm 0 W/m2
00:09 13.4 °C 11.3 °C 1011.5 hPa SE 1.3 km/h 8 km/h 86.9% 0.0 mm 0 W/m2
00:14 13.4 °C 11.3 °C 1011.4 hPa Calm   6.4 km/h 87% 0.0 mm 0 W/m2
00:19 13.4 °C 11.3 °C 1011.3 hPa SE 1.3 km/h 6.4 km/h 87% 0.0 mm 0 W/m2
00:24 13.4 °C 11.3 °C 1011.2 hPa SE 1.6 km/h 6.4 km/h 87% 0.0 mm 0 W/m2
00:29 13.4 °C 11.3 °C 1011.1 hPa SE 1.6 km/h 4.8 km/h 87% 0.0 mm 0 W/m2
00:34 13.3 °C 11.2 °C 1011.0 hPa SE 1.6 km/h 4.8 km/h 87.1% 0.0 mm 0 W/m2
00:39 13.3 °C 11.4 °C 1010.9 hPa SE 1.6 km/h 4.8 km/h 88% 0.0 mm 0 W/m2
00:44 13.3 °C 11.3 °C 1010.7 hPa SE 0.3 km/h 4.8 km/h 88% 0.0 mm 0 W/m2
00:49 13.3 °C 11.3 °C 1010.6 hPa Calm   6.4 km/h 88% 0.0 mm 0 W/m2
00:54 13.3 °C 11.3 °C 1010.6 hPa SE 1.6 km/h 8 km/h 88% 0.0 mm 0 W/m2
00:59 13.2 °C 11.3 °C 1010.4 hPa SE 3.2 km/h 8 km/h 88% 0.0 mm 0 W/m2
01:04 13.2 °C 11.2 °C 1010.4 hPa SE 2.3 km/h 8 km/h 88% 0.0 mm 0 W/m2
01:09 13.2 °C 11.2 °C 1010.4 hPa SE 1.6 km/h 8 km/h 88% 0.0 mm 0 W/m2
01:14 13.2 °C 11.2 °C 1010.4 hPa SE 1.6 km/h 8 km/h 88% 0.0 mm 0 W/m2
01:19 13.2 °C 11.2 °C 1010.4 hPa SSE 1.6 km/h 8 km/h 88% 0.0 mm 0 W/m2
01:24 13.3 °C 11.3 °C 1010.4 hPa SSE 1.6 km/h 8 km/h 88% 0.0 mm 0 W/m2
01:29 13.3 °C 11.3 °C 1010.2 hPa SSE 1.6 km/h 8 km/h 87.6% 0.0 mm 0 W/m2
01:34 13.3 °C 11.2 °C 1010.0 hPa SSE 1.6 km/h 4.8 km/h 87% 0.0 mm 0 W/m2
01:39 13.3 °C 11.2 °C 1010.1 hPa SSE 1.6 km/h 4.8 km/h 87% 0.0 mm 0 W/m2
01:44 13.3 °C 11.2 °C 1010.1 hPa SSE 1 km/h 4.8 km/h 87% 0.0 mm 0 W/m2
01:49 13.3 °C 11.2 °C 1010.1 hPa Calm   4.8 km/h 87% 0.0 mm 0 W/m2
01:54 13.4 °C 11.2 °C 1010.0 hPa Calm   4.8 km/h 87% 0.0 mm 0 W/m2
01:59 13.4 °C 11.3 °C 1010.0 hPa SSE 1.6 km/h 8 km/h 87% 0.0 mm 0 W/m2
02:04 13.4 °C 11.2 °C 1009.9 hPa SSE 1.6 km/h 8 km/h 86.3% 0.0 mm 0 W/m2
02:09 13.4 °C 11.2 °C 1009.8 hPa SSE 1.6 km/h 8 km/h 86% 0.0 mm 0 W/m2
02:14 13.5 °C 11.2 °C 1009.8 hPa SSE 0.9 km/h 4.8 km/h 86% 0.0 mm 0 W/m2
02:19 13.5 °C 11.2 °C 1009.8 hPa Calm   3.2 km/h 86% 0.0 mm 0 W/m2
02:24 13.6 °C 11.3 °C 1009.7 hPa Calm   3.2 km/h 86% 0.0 mm 0 W/m2
02:29 13.7 °C 11.4 °C 1009.5 hPa Calm   4.8 km/h 86% 0.0 mm 0 W/m2
02:34 13.6 °C 11.4 °C 1009.5 hPa Calm   4.8 km/h 86% 0.0 mm 0 W/m2
02:39 13.6 °C 11.3 °C 1009.5 hPa SSE 0.3 km/h 4.8 km/h 85.8% 0.0 mm 0 W/m2
02:44 13.6 °C 11.2 °C 1009.4 hPa Calm   4.8 km/h 85.3% 0.0 mm 0 W/m2
02:49 13.7 °C 11.2 °C 1009.3 hPa Calm   3.2 km/h 85% 0.0 mm 0 W/m2
02:54 13.6 °C 11.1 °C 1009.2 hPa Calm   3.2 km/h 85.1% 0.0 mm 0 W/m2
02:59 13.7 °C 11.4 °C 1009.1 hPa SE 0.3 km/h 12.9 km/h 86% 0.0 mm 0 W/m2
03:04 13.6 °C 11.2 °C 1009.1 hPa ESE 2.6 km/h 14.5 km/h 85.3% 0.0 mm 0 W/m2
03:09 13.6 °C 11.1 °C 1009.0 hPa ESE 4.8 km/h 14.5 km/h 85.2% 0.0 mm 0 W/m2
03:14 13.5 °C 11.2 °C 1009.0 hPa ESE 4.5 km/h 14.5 km/h 85.9% 0.0 mm 0 W/m2
03:19 13.5 °C 11.2 °C 1009.0 hPa ESE 3.6 km/h 14.5 km/h 86% 0.0 mm 0 W/m2
03:24 13.5 °C 11.2 °C 1008.9 hPa ESE 3.8 km/h 12.9 km/h 86% 0.0 mm 0 W/m2
03:29 13.4 °C 11.2 °C 1008.8 hPa ESE 4.8 km/h 12.9 km/h 86% 0.0 mm 0 W/m2
03:34 13.4 °C 11.1 °C 1008.7 hPa East 4.8 km/h 14.5 km/h 86.1% 0.0 mm 0 W/m2
03:39 13.4 °C 11.3 °C 1008.5 hPa East 3.9 km/h 14.5 km/h 87% 0.0 mm 0 W/m2
03:44 13.4 °C 11.3 °C 1008.4 hPa ESE 3.2 km/h 14.5 km/h 87% 0.0 mm 0 W/m2
03:49 13.4 °C 11.3 °C 1008.5 hPa ESE 3.2 km/h 12.9 km/h 87% 0.0 mm 0 W/m2
03:54 13.4 °C 11.2 °C 1008.5 hPa East 3.2 km/h 12.9 km/h 87% 0.0 mm 0 W/m2
03:59 13.3 °C 11.2 °C 1008.6 hPa East 3.9 km/h 12.9 km/h 87% 0.0 mm 0 W/m2
04:04 13.3 °C 11.2 °C 1008.5 hPa East 3.2 km/h 12.9 km/h 87% 0.0 mm 0 W/m2
04:09 13.4 °C 11.2 °C 1008.5 hPa East 0.2 km/h 12.9 km/h 87% 0.0 mm 0 W/m2
04:14 13.4 °C 11.3 °C 1008.5 hPa East 0.6 km/h 12.9 km/h 87% 0.0 mm 0 W/m2
04:19 13.4 °C 11.3 °C 1008.6 hPa ESE 3.2 km/h 12.9 km/h 87.3% 0.0 mm 0 W/m2
04:24 13.3 °C 11.3 °C 1008.9 hPa ESE 1.6 km/h 11.3 km/h 88.1% 1.0 mm 0 W/m2
04:29 13.1 °C 11.4 °C 1009.4 hPa ENE 1.9 km/h 12.9 km/h 89.3% 2.0 mm 0 W/m2
04:34 12.9 °C 11.3 °C 1009.5 hPa NNW 4.5 km/h 12.9 km/h 90% 3.8 mm 0 W/m2
04:39 12.8 °C 11.2 °C 1009.4 hPa NNW 4.2 km/h 12.9 km/h 90.4% 4.6 mm 0 W/m2
04:44 12.8 °C 11.3 °C 1009.5 hPa NW 3.2 km/h 16.1 km/h 91% 5.1 mm 0 W/m2
04:49 12.7 °C 11.3 °C 1009.6 hPa WNW 5.1 km/h 16.1 km/h 91.5% 5.3 mm 0 W/m2
04:54 12.6 °C 11.3 °C 1009.6 hPa WNW 5.8 km/h 16.1 km/h 91.8% 5.8 mm 0 W/m2
04:59 12.6 °C 11.3 °C 1009.4 hPa West 4.5 km/h 14.5 km/h 92% 6.1 mm 0 W/m2
05:04 12.6 °C 11.3 °C 1009.2 hPa WSW 3.8 km/h 8 km/h 92% 6.3 mm 0 W/m2
05:09 12.6 °C 11.3 °C 1009.0 hPa SW 3.2 km/h 6.4 km/h 92% 6.6 mm 0 W/m2
05:14 12.6 °C 11.4 °C 1008.7 hPa SW 2 km/h 6.4 km/h 92.4% 6.6 mm 0 W/m2
05:19 12.5 °C 11.4 °C 1008.6 hPa SW 1.6 km/h 4.8 km/h 93% 6.9 mm 0 W/m2
05:24 12.5 °C 11.4 °C 1008.3 hPa SW 1.6 km/h 4.8 km/h 93% 6.6 mm 0 W/m2
05:29 12.4 °C 11.3 °C 1008.3 hPa SW 1.6 km/h 8 km/h 93% 5.6 mm 0 W/m2
05:34 12.4 °C 11.3 °C 1008.3 hPa SSW 1.6 km/h 8 km/h 93% 4.6 mm 0 W/m2
05:39 12.3 °C 11.2 °C 1008.3 hPa SSW 1.9 km/h 9.7 km/h 93% 2.8 mm 0 W/m2
05:44 12.3 °C 11.2 °C 1008.3 hPa SE 3.2 km/h 11.3 km/h 93% 2.0 mm 0 W/m2
05:49 12.3 °C 11.2 °C 1008.3 hPa ESE 3.2 km/h 11.3 km/h 93% 1.8 mm 0 W/m2
05:54 12.3 °C 11.2 °C 1008.3 hPa ESE 2.3 km/h 11.3 km/h 93% 1.5 mm 0 W/m2
05:59 12.3 °C 11.2 °C 1008.2 hPa ESE 1.6 km/h 8 km/h 93% 0.8 mm 0 W/m2
06:04 12.3 °C 11.2 °C 1008.2 hPa SE 3.2 km/h 11.3 km/h 93% 0.5 mm 0 W/m2
06:09 12.2 °C 11 °C 1008.2 hPa SE 3.2 km/h 11.3 km/h 93% 0.5 mm 0 W/m2
06:14 12.1 °C 10.9 °C 1008.4 hPa SE 3.2 km/h 11.3 km/h 93% 0.2 mm 5 W/m2
06:19 12 °C 10.9 °C 1008.6 hPa SSE 2.6 km/h 9.7 km/h 93% 0.2 mm 5 W/m2
06:24 12 °C 10.9 °C 1008.7 hPa SSE 1.6 km/h 9.7 km/h 93% 0.0 mm 5 W/m2
06:29 12 °C 11 °C 1008.8 hPa SSE 1.3 km/h 8 km/h 93.5% 0.0 mm 9 W/m2
06:34 12.1 °C 10.9 °C 1008.8 hPa Calm   8 km/h 93% 0.0 mm 16 W/m2
06:39 12.1 °C 11 °C 1008.8 hPa SSE 1.6 km/h 3.2 km/h 93% 0.0 mm 25 W/m2
06:44 12.1 °C 11.1 °C 1008.7 hPa SSE 0.7 km/h 3.2 km/h 93.2% 0.0 mm 39 W/m2
06:49 12.2 °C 11.1 °C 1008.8 hPa Calm   3.2 km/h 93% 0.0 mm 46 W/m2
06:54 12.3 °C 11.4 °C 1008.8 hPa Calm   1.6 km/h 93.9% 0.0 mm 46 W/m2
06:59 12.3 °C 11.4 °C 1008.9 hPa Calm   1.6 km/h 94% 0.0 mm 32 W/m2
07:04 12.3 °C 11.4 °C 1009.2 hPa Calm   1.6 km/h 94% 0.0 mm 32 W/m2
07:09 12.3 °C 11.3 °C 1009.2 hPa Calm   1.6 km/h 94% 0.0 mm 46 W/m2
07:14 12.3 °C 11.4 °C 1009.1 hPa Calm   3.2 km/h 94% 0.0 mm 62 W/m2
07:19 12.4 °C 11.4 °C 1009.2 hPa Calm   3.2 km/h 94% 0.0 mm 81 W/m2
07:24 12.5 °C 11.5 °C 1009.2 hPa Calm   3.2 km/h 94% 0.0 mm 90 W/m2
07:29 12.6 °C 11.7 °C 1009.3 hPa Calm   1.6 km/h 94% 0.0 mm 88 W/m2
07:34 12.7 °C 11.8 °C 1009.3 hPa Calm   1.6 km/h 94% 0.0 mm 98 W/m2
07:39 12.8 °C 11.8 °C 1009.2 hPa Calm   3.2 km/h 94% 0.0 mm 105 W/m2
07:44 12.9 °C 12 °C 1009.3 hPa Calm   3.2 km/h 94% 0.0 mm 107 W/m2
07:49 13 °C 12.1 °C 1009.3 hPa Calm   3.2 km/h 94% 0.0 mm 105 W/m2
07:54 13.1 °C 12.2 °C 1009.3 hPa Calm   3.2 km/h 94% 0.0 mm 67 W/m2
07:59 13.1 °C 12.2 °C 1009.4 hPa Calm   3.2 km/h 94% 0.0 mm 95 W/m2
08:04 13.1 °C 12.2 °C 1009.5 hPa Calm   3.2 km/h 94% 0.0 mm 104 W/m2
08:09 13.1 °C 12.2 °C 1009.5 hPa Calm   3.2 km/h 94% 0.0 mm 114 W/m2
08:14 13.2 °C 12.2 °C 1009.6 hPa SSE 0.3 km/h 3.2 km/h 94% 0.0 mm 144 W/m2
08:19 13.2 °C 12.2 °C 1009.5 hPa SSE 1.6 km/h 3.2 km/h 93.3% 0.0 mm 185 W/m2
08:24 13.4 °C 12.4 °C 1009.5 hPa South 1.9 km/h 6.4 km/h 93.5% 0.0 mm 250 W/m2
08:29 13.5 °C 12.4 °C 1009.6 hPa SSW 3.5 km/h 9.7 km/h 93% 0.0 mm 278 W/m2
08:34 13.6 °C 12.5 °C 1009.6 hPa SSW 4.8 km/h 9.7 km/h 93% 0.0 mm 278 W/m2
08:39 13.7 °C 12.5 °C 1009.6 hPa SSW 4.5 km/h 9.7 km/h 93% 0.0 mm 264 W/m2
08:44 13.6 °C 12.5 °C 1009.6 hPa SSW 4.8 km/h 11.3 km/h 93% 0.0 mm 244 W/m2
08:49 13.8 °C 12.7 °C 1009.5 hPa SSW 4.5 km/h 11.3 km/h 93% 0.0 mm 183 W/m2
08:54 13.9 °C 12.6 °C 1009.6 hPa South 3.2 km/h 11.3 km/h 92.2% 0.0 mm 163 W/m2
08:59 13.9 °C 12.6 °C 1009.6 hPa SSW 1.6 km/h 9.7 km/h 92% 0.0 mm 202 W/m2
09:04 14 °C 12.7 °C 1009.5 hPa SSW 3.2 km/h 9.7 km/h 91.8% 0.0 mm 387 W/m2
09:09 14.2 °C 12.9 °C 1009.5 hPa SSW 3.8 km/h 9.7 km/h 91.6% 0.0 mm 299 W/m2
09:14 14.2 °C 12.8 °C 1009.5 hPa SSW 3.5 km/h 8 km/h 90.7% 0.0 mm 232 W/m2
09:19 14.1 °C 12.5 °C 1009.5 hPa SSW 3.2 km/h 8 km/h 90% 0.0 mm 232 W/m2
09:24 14.1 °C 12.5 °C 1009.5 hPa SSW 3.2 km/h 8 km/h 90% 0.0 mm 163 W/m2
09:29 14.3 °C 12.7 °C 1009.5 hPa SSW 2.3 km/h 8 km/h 90% 0.0 mm 185 W/m2
09:34 14.4 °C 12.6 °C 1009.5 hPa SSW 0.6 km/h 6.4 km/h 89.3% 0.0 mm 153 W/m2
09:39 14.4 °C 12.6 °C 1009.5 hPa SSW 1.6 km/h 6.4 km/h 89% 0.0 mm 214 W/m2
09:44 14.4 °C 12.6 °C 1009.6 hPa SSW 1.3 km/h 6.4 km/h 88.9% 0.0 mm 229 W/m2
09:49 14.5 °C 12.5 °C 1009.6 hPa SSW 0.6 km/h 4.8 km/h 88.1% 0.0 mm 323 W/m2
09:54 14.9 °C 13 °C 1009.5 hPa SSW 1.6 km/h 4.8 km/h 88.4% 0.0 mm 330 W/m2
09:59 15.1 °C 13 °C 1009.5 hPa South 1.6 km/h 9.7 km/h 87.3% 0.0 mm 420 W/m2
10:04 15.3 °C 13.1 °C 1009.4 hPa South 2.2 km/h 9.7 km/h 87% 0.0 mm 366 W/m2
10:09 15.3 °C 12.9 °C 1009.4 hPa South 2.3 km/h 9.7 km/h 85.7% 0.0 mm 490 W/m2
10:14 15.4 °C 12.8 °C 1009.3 hPa South 3.2 km/h 8 km/h 84.8% 0.0 mm 427 W/m2
10:19 15.4 °C 12.5 °C 1009.2 hPa SSW 3.2 km/h 8 km/h 83.3% 0.0 mm 323 W/m2
10:24 15.3 °C 12.5 °C 1009.2 hPa SSW 3.2 km/h 8 km/h 83.3% 0.0 mm 427 W/m2
10:29 15.6 °C 12.7 °C 1009.2 hPa SSW 3.2 km/h 9.7 km/h 82.7% 0.0 mm 446 W/m2
10:34 16 °C 13.1 °C 1009.2 hPa South 3.2 km/h 9.7 km/h 83% 0.0 mm 494 W/m2
10:39 16.3 °C 13 °C 1009.2 hPa South 4.8 km/h 14.5 km/h 80.8% 0.0 mm 494 W/m2
10:44 16.3 °C 12.9 °C 1009.3 hPa SSW 6.1 km/h 14.5 km/h 80.3% 0.0 mm 508 W/m2
10:49 16.4 °C 12.8 °C 1009.4 hPa SSW 5.2 km/h 14.5 km/h 79% 0.0 mm 547 W/m2
10:54 16.5 °C 12.8 °C 1009.4 hPa SSW 4.8 km/h 11.3 km/h 78.8% 0.0 mm 480 W/m2
10:59 17 °C 12.9 °C 1009.4 hPa South 3.2 km/h 8 km/h 77.2% 0.0 mm 443 W/m2
11:04 17.7 °C 13.3 °C 1009.4 hPa SSE 3.2 km/h 8 km/h 75.4% 0.0 mm 529 W/m2
11:09 17.9 °C 13.4 °C 1009.4 hPa SE 2.3 km/h 9.7 km/h 75.5% 0.0 mm 707 W/m2
11:14 18.1 °C 13.1 °C 1009.3 hPa SSE 3.5 km/h 12.9 km/h 72.4% 0.0 mm 1413 W/m2
11:19 18.2 °C 12.8 °C 1009.2 hPa SSE 4.8 km/h 12.9 km/h 70.3% 0.0 mm 1292 W/m2
11:24 18 °C 12.6 °C 1009.1 hPa SSE 4.8 km/h 12.9 km/h 71% 0.0 mm 366 W/m2
11:29 18.4 °C 13.5 °C 1009.1 hPa SSE 4.8 km/h 12.9 km/h 72.9% 0.0 mm 635 W/m2
11:34 18.7 °C 13 °C 1009.0 hPa SE 4.2 km/h 12.9 km/h 69.9% 0.0 mm 438 W/m2
11:39 17.8 °C 12.4 °C 1009.0 hPa SE 3.9 km/h 12.9 km/h 70.4% 0.0 mm 287 W/m2
11:44 17.5 °C 12.4 °C 1008.9 hPa South 3.2 km/h 9.7 km/h 72.1% 0.0 mm 1187 W/m2
11:49 18 °C 12.8 °C 1008.8 hPa South 3.8 km/h 14.5 km/h 71.3% 0.0 mm 1136 W/m2
11:54 18.7 °C 13.1 °C 1008.7 hPa South 4.8 km/h 14.5 km/h 69.9% 0.0 mm 1201 W/m2
11:59 18.9 °C 12.5 °C 1008.7 hPa South 4.8 km/h 14.5 km/h 66.6% 0.0 mm 1197 W/m2
12:04 18.6 °C 12.7 °C 1008.7 hPa South 4.8 km/h 11.3 km/h 68.2% 0.0 mm 290 W/m2
12:09 18.2 °C 12.2 °C 1008.6 hPa SW 3.2 km/h 9.7 km/h 67.9% 0.0 mm 236 W/m2
12:14 18.1 °C 12.4 °C 1008.6 hPa SSW 3.2 km/h 9.7 km/h 69.3% 0.0 mm 202 W/m2
12:19 18.2 °C 12.9 °C 1008.5 hPa SSW 1.6 km/h 9.7 km/h 71.2% 0.0 mm 253 W/m2
12:24 18.2 °C 13.1 °C 1008.4 hPa South 1.6 km/h 8 km/h 72.1% 0.0 mm 417 W/m2
12:29 18.4 °C 14.3 °C 1008.4 hPa SSE 1.6 km/h 4.8 km/h 76.8% 0.0 mm 497 W/m2
12:34 18.7 °C 13.7 °C 1008.3 hPa SE 1.6 km/h 4.8 km/h 72.8% 0.0 mm 1303 W/m2
12:39 19 °C 13.1 °C 1008.2 hPa SE 1.6 km/h 9.7 km/h 68.9% 0.0 mm 1269 W/m2
12:44 19.8 °C 13.2 °C 1008.2 hPa SE 3.2 km/h 9.7 km/h 66.1% 0.0 mm 1232 W/m2
12:49 20.7 °C 13.2 °C 1008.2 hPa ESE 3.2 km/h 9.7 km/h 62.4% 0.0 mm 1238 W/m2
12:54 20.8 °C 13.2 °C 1008.0 hPa East 4.5 km/h 14.5 km/h 61.5% 0.0 mm 1245 W/m2
12:59 21.3 °C 13.6 °C 1007.9 hPa East 4.8 km/h 14.5 km/h 61.6% 0.0 mm 1245 W/m2
13:04 21.6 °C 13.4 °C 1007.8 hPa ENE 4.8 km/h 14.5 km/h 59.6% 0.0 mm 1188 W/m2
13:09 21.3 °C 12.6 °C 1007.7 hPa ENE 4.8 km/h 14.5 km/h 57.6% 0.0 mm 1204 W/m2
13:14 21.4 °C 12.5 °C 1007.6 hPa East 4.8 km/h 12.9 km/h 56.9% 0.0 mm 1320 W/m2
13:19 21.5 °C 11.8 °C 1007.6 hPa ESE 4.8 km/h 12.9 km/h 54.2% 0.0 mm 1320 W/m2
13:24 21.1 °C 12.6 °C 1007.5 hPa SE 4.8 km/h 12.9 km/h 58.2% 0.0 mm 410 W/m2
13:29 21.3 °C 13 °C 1007.4 hPa SE 3.9 km/h 11.3 km/h 59.1% 0.0 mm 373 W/m2
13:34 20.5 °C 12.2 °C 1007.3 hPa ESE 3.2 km/h 11.3 km/h 59% 0.0 mm 415 W/m2
13:39 20.1 °C 12.1 °C 1007.2 hPa NE 3.5 km/h 8 km/h 59.9% 0.0 mm 399 W/m2
13:44 20 °C 12 °C 1007.1 hPa NE 3.2 km/h 8 km/h 60.2% 0.0 mm 1153 W/m2
13:49 19.9 °C 12 °C 1007.0 hPa NE 2.5 km/h 8 km/h 60.3% 0.0 mm 1336 W/m2
13:54 20.3 °C 12.1 °C 1006.9 hPa NE 1.6 km/h 8 km/h 59.3% 0.0 mm 1336 W/m2
13:59 20.4 °C 11.5 °C 1006.7 hPa SSE 3.2 km/h 11.3 km/h 56.7% 0.0 mm 1246 W/m2
14:04 20.6 °C 11.6 °C 1006.7 hPa SW 4.2 km/h 11.3 km/h 56.6% 0.0 mm 1266 W/m2
14:09 21.5 °C 12.3 °C 1006.7 hPa SW 2.6 km/h 11.3 km/h 55.9% 0.0 mm 1266 W/m2
14:14 21.2 °C 12.3 °C 1006.7 hPa WSW 1.9 km/h 8 km/h 57% 0.0 mm 301 W/m2
14:19 20 °C 11.7 °C 1006.6 hPa WNW 3.2 km/h 8 km/h 58.8% 0.0 mm 410 W/m2
14:24 19.9 °C 12.8 °C 1006.6 hPa NW 3.2 km/h 8 km/h 63.6% 0.0 mm 371 W/m2
14:29 20.5 °C 12.5 °C 1006.6 hPa NW 2.6 km/h 8 km/h 60.2% 0.0 mm 606 W/m2
14:34 21 °C 12.7 °C 1006.5 hPa NW 3.8 km/h 12.9 km/h 59.3% 0.0 mm 1216 W/m2
14:39 21.3 °C 12.7 °C 1006.4 hPa NW 4.8 km/h 14.5 km/h 57.9% 0.0 mm 1176 W/m2
14:44 21.3 °C 13 °C 1006.2 hPa West 5.2 km/h 14.5 km/h 59.3% 0.0 mm 1127 W/m2
14:49 21.8 °C 13.1 °C 1006.2 hPa WSW 6.1 km/h 14.5 km/h 57.6% 0.0 mm 1106 W/m2
14:54 22.5 °C 13 °C 1006.1 hPa West 4.5 km/h 12.9 km/h 54.8% 0.0 mm 1093 W/m2
14:59 23 °C 12.7 °C 1006.1 hPa WNW 4.2 km/h 12.9 km/h 52.3% 0.0 mm 1129 W/m2
Compliments of Weather Underground - 1 mb

Latitude S 35° 13' 00" Longitude E 149° 01' 22" Elevation 577 m
Page updated 9/12/2021 2:55:03 PM.
Powered by Cumulus MX v3.2.0 (3056)